• Join FlightAware (Why Join?)
  • Login
  • US Flag 
05:51PM EDT


 

Airport Tracker/Info


-or-


 

Live Flight TrackerFlight Track Log ✈ N490QS ✈ 23-Jun-2013 ✈ TIST / STT - KSGJ

Flight Track Log - Related Links

Times and Time Zones

All times are in EDT time to prevent confusion due to time zone crossing. See the N490QS flight status page for this flight to view local times or setup timezone preferences in your user account.

Time Position Orientation Groundspeed Altitude Reporting Facility
EDT Latitude Longitude Course Direction KTS MPH feet Rate Location/Type
10:36AM 18.3167 -64.9500 205° Southwest 170 196 1,900  Level San Juan Center
10:37AM 18.2833 -64.9667 205° Southwest 190 219 3,900 2,700 Climbing San Juan Center
10:38AM 18.2667 -65.0500 258° West 300 345 7,300 3,060 Climbing San Juan Center
10:39AM 18.2667 -65.1333 270° West 320 368 10,100 2,460 Climbing San Juan Center
10:40AM 18.2833 -65.2333 280° West 360 414 12,300 2,220 Climbing San Juan Center
10:41AM 18.3167 -65.3500 287° West 380 437 14,600 2,220 Climbing San Juan Center
10:42AM 18.3333 -65.4500 280° West 370 426 16,800 2,040 Climbing San Juan Center
10:43AM 18.3500 -65.5667 279° West 400 460 18,800 1,980 Climbing San Juan Center
10:44AM 18.3833 -65.7000 285° West 410 472 20,800 1,980 Climbing San Juan Center
10:45AM 18.4333 -65.8000 298° West 420 483 22,800 1,680 Climbing San Juan Center
10:46AM 18.5000 -65.9000 305° West 440 506 24,300 1,500 Climbing San Juan Center
10:47AM 18.5833 -66.0167 307° West 460 529 25,900 1,560 Climbing San Juan Center
10:48AM 18.6667 -66.1167 311° West 450 518 27,500 1,380 Climbing San Juan Center
10:49AM 18.7500 -66.2167 311° West 460 529 28,700 1,500 Climbing San Juan Center
10:50AM 18.8333 -66.3167 311° West 470 541 30,600 1,740 Climbing San Juan Center
10:51AM 18.9167 -66.4333 307° West 460 529 32,200 1,620 Climbing San Juan Center
10:52AM 19.0000 -66.5333 311° West 460 529 33,900 2,100 Climbing San Juan Center
10:53AM 19.0833 -66.6333 311° West 450 518 36,500 2,100 Climbing San Juan Center
10:54AM 19.1667 -66.7333 311° West 440 506 38,100 1,560 Climbing San Juan Center
10:55AM 19.2500 -66.8333 311° West 440 506 39,700 1,500 Climbing San Juan Center
10:56AM 19.3167 -66.9333 305° West 430 495 41,200 1,380 Climbing San Juan Center
10:57AM 19.3833 -67.0333 305° West 410 472 42,500 900 Climbing San Juan Center
10:58AM 19.4667 -67.1333 311° West 440 506 43,000 240 Climbing San Juan Center
10:59AM 19.5500 -67.2333 311° West 440 506 43,000  Level San Juan Center
11:01AM 19.7000 -67.4167 311° West 430 495 43,000  Level San Juan Center
11:02AM 19.7667 -67.5167 305° West 430 495 43,000  Level San Juan Center
11:03AM 19.8500 -67.6167 312° West 440 506 43,000  Level San Juan Center
11:04AM 19.9333 -67.7167 312° West 440 506 43,000  Level San Juan Center
11:05AM 20.0000 -67.8333 301° West 440 506 43,000  Level San Juan Center
11:06AM 20.0833 -67.9333 312° West 440 506 43,000  Level San Juan Center
11:07AM 20.1667 -68.0333 312° West 450 518 43,000  Level San Juan Center
11:09AM 20.2661 -68.1861 305° West 578 665 43,000  Level Miami Center
11:10AM 20.3444 -68.2872 310° West 505 581 43,000  Level Miami Center
11:11AM 20.4208 -68.3883 309° West 469 540 43,000  Level Miami Center
11:12AM 20.5031 -68.4850 312° West 449 517 43,000  Level Miami Center
11:13AM 20.5792 -68.5842 309° West 449 517 43,000  Level Miami Center
11:14AM 20.6575 -68.6856 310° West 449 517 43,000  Level Miami Center
11:15AM 20.7356 -68.7850 310° West 444 511 43,000  Level Miami Center
11:16AM 20.8156 -68.8844 311° West 444 511 43,000  Level Miami Center
11:17AM 20.8894 -68.9842 308° West 438 504 43,000  Level Miami Center
11:18AM 20.9675 -69.0861 309° West 438 504 43,000  Level Miami Center
11:19AM 21.0475 -69.1881 310° West 444 511 43,000  Level Miami Center
11:20AM 21.1256 -69.2900 309° West 449 517 43,000  Level Miami Center
11:21AM 21.2056 -69.3922 310° West 449 517 43,000  Level Miami Center
11:22AM 21.2853 -69.4922 311° West 449 517 43,000  Level Miami Center
11:23AM 21.3653 -69.5969 309° West 449 517 43,000  Level Miami Center
11:24AM 21.4408 -69.6975 309° West 449 517 43,000  Level Miami Center
11:25AM 21.5164 -69.7981 309° West 444 511 43,000  Level Miami Center
11:26AM 21.6031 -69.9117 309° West 444 511 43,000  Level Miami Center
11:27AM 21.6717 -70.0017 309° West 444 511 43,000  Level Miami Center
11:28AM 21.7492 -70.1028 310° West 444 511 43,000  Level Miami Center
11:29AM 21.8286 -70.2036 310° West 444 511 43,000  Level Miami Center
11:30AM 21.9042 -70.3094 308° West 444 511 43,000  Level Miami Center
11:31AM 21.9856 -70.4125 310° West 444 511 43,000  Level Miami Center
11:32AM 22.0608 -70.5164 308° West 449 517 43,000  Level Miami Center
11:33AM 22.1403 -70.6200 310° West 449 517 43,000  Level Miami Center
11:34AM 22.2175 -70.7217 309° West 444 511 43,000  Level Miami Center
11:35AM 22.2947 -70.8256 309° West 444 511 43,000  Level Miami Center
11:36AM 22.3758 -70.9272 311° West 451 519 43,000  Level Miami Center
11:37AM 22.4531 -71.0361 308° West 451 519 43,000  Level Miami Center
11:38AM 22.5344 -71.1425 310° West 451 519 43,000  Level Miami Center
11:39AM 22.6114 -71.2469 309° West 451 519 43,000  Level Miami Center
11:40AM 22.6925 -71.3536 310° West 456 525 43,000  Level Miami Center
11:41AM 22.7692 -71.4583 308° West 456 525 43,000  Level Miami Center
11:42AM 22.8481 -71.5631 309° West 456 525 43,000  Level Miami Center
11:43AM 22.9269 -71.6703 309° West 456 525 43,000  Level Miami Center
11:44AM 23.0036 -71.7756 308° West 456 525 43,000  Level Miami Center
11:45AM 23.0842 -71.8761 311° West 456 525 43,000  Level Miami Center
11:46AM 23.1608 -71.9861 307° West 456 525 43,000  Level Miami Center
11:47AM 23.2394 -72.0914 309° West 456 525 43,000  Level Miami Center
11:48AM 23.3158 -72.1972 308° West 456 525 43,000  Level Miami Center
11:49AM 23.3942 -72.3028 309° West 456 525 43,000  Level Miami Center
11:50AM 23.4725 -72.4089 309° West 456 525 43,000  Level Miami Center
11:51AM 23.5511 -72.5192 308° West 456 525 43,000  Level Miami Center
11:52AM 23.6294 -72.6278 308° West 456 525 43,000  Level Miami Center
11:53AM 23.7075 -72.7339 309° West 456 525 43,000  Level Miami Center
11:54AM 23.7836 -72.8447 307° West 461 531 43,000  Level Miami Center
11:55AM 23.8556 -72.9606 304° West 461 531 43,000  Level Miami Center
11:56AM 23.9314 -73.0672 308° West 456 525 43,000  Level Miami Center
11:57AM 24.0094 -73.1764 308° West 456 525 43,000  Level Miami Center
11:58AM 24.0853 -73.2833 308° West 450 518 43,000  Level Miami Center
11:59AM 24.1608 -73.3928 307° West 450 518 43,000  Level Miami Center
12:00PM 24.2364 -73.4978 308° West 450 518 43,000  Level Miami Center
12:01PM 24.3161 -73.6050 309° West 450 518 43,000  Level Miami Center
12:02PM 24.3914 -73.7103 308° West 450 518 43,000  Level Miami Center
12:03PM 24.4689 -73.8225 307° West 450 518 43,000  Level Miami Center
12:04PM 24.5464 -73.9325 308° West 450 518 43,000  Level Miami Center
12:05PM 24.6239 -74.0403 308° West 450 518 43,000  Level Miami Center
12:06PM 24.6989 -74.1483 307° West 450 518 43,000  Level Miami Center
12:07PM 24.7783 -74.2611 308° West 455 524 43,000  Level Miami Center
12:08PM 24.8533 -74.3694 307° West 455 524 43,000  Level Miami Center
12:09PM 24.9283 -74.4800 307° West 455 524 43,000  Level Miami Center
12:10PM 25.0094 -74.5956 308° West 462 532 43,000  Level Miami Center
12:11PM 25.0842 -74.7019 308° West 462 532 43,000  Level Miami Center
12:12PM 25.1611 -74.8131 307° West 457 526 43,000  Level Miami Center
12:13PM 25.2378 -74.9244 307° West 457 526 43,000  Level Miami Center
12:14PM 25.3122 -75.0333 307° West 457 526 43,000  Level Miami Center
12:15PM 25.3867 -75.1450 306° West 457 526 43,000  Level Miami Center
12:16PM 25.4611 -75.2544 307° West 452 520 43,000  Level Miami Center
12:17PM 25.5375 -75.3617 308° West 452 520 43,000  Level Miami Center
12:18PM 25.6139 -75.4692 308° West 452 520 43,000  Level Miami Center
12:19PM 25.6858 -75.5789 306° West 452 520 43,000  Level Miami Center
12:20PM 25.7619 -75.6911 307° West 452 520 43,000  Level Miami Center
12:21PM 25.8403 -75.8011 308° West 452 520 43,000  Level Miami Center
12:22PM 25.9078 -75.9069 305° West 446 513 43,000  Level Miami Center
12:23PM 25.9900 -76.0289 307° West 446 513 43,000  Level Miami Center
12:24PM 26.0681 -76.1417 308° West 446 513 43,000  Level Miami Center
12:25PM 26.1417 -76.2544 306° West 451 519 43,000  Level Miami Center
12:26PM 26.2150 -76.3653 306° West 456 525 43,000  Level Miami Center
12:27PM 26.2886 -76.4739 307° West 450 518 43,000  Level Miami Center
12:28PM 26.3642 -76.5872 307° West 450 518 43,000  Level Miami Center
12:29PM 26.4353 -76.6964 306° West 451 519 43,000  Level Miami Center
12:30PM 26.5106 -76.8144 305° West 451 519 43,000  Level Miami Center
12:31PM 26.5858 -76.9236 308° West 451 519 43,000  Level Miami Center
12:32PM 26.6608 -77.0378 306° West 450 518 43,000  Level Miami Center
12:33PM 26.7339 -77.1517 306° West 456 525 43,000  Level Miami Center
12:34PM 26.8067 -77.2614 307° West 450 518 43,000  Level Miami Center
12:35PM 26.8817 -77.3758 306° West 450 518 43,000  Level Miami Center
12:36PM 26.9397 -77.4647 306° West 457 526 43,000  Level Miami Center
12:37PM 27.0186 -77.5839 307° West 450 518 43,000  Level Miami Center
12:38PM 27.0869 -77.6917 305° West 441 507 43,000  Level Miami Center
12:39PM 27.1550 -77.8206 301° West 452 520 43,000 240 Level Miami Center
12:40PM 27.2231 -77.9403 303° West 452 520 43,500 540 Climbing Miami Center
12:41PM 27.2933 -78.0603 303° West 460 529 44,100 600 Climbing Miami Center
12:42PM 27.3675 -78.1778 305° West 455 524 44,700 420 Climbing Miami Center
12:43PM 27.4331 -78.2911 303° West 441 507 45,000 120 Climbing Miami Center
12:44PM 27.4925 -78.4089 300° West 435 501 45,000  Level Miami Center
12:45PM 27.5392 -78.5361 292° West 430 495 45,000  Level Miami Center
12:46PM 27.5856 -78.6608 293° West 430 495 45,000  Level Miami Center
12:47PM 27.6364 -78.7858 295° West 440 506 45,000  Level Miami Center
12:48PM 27.6825 -78.9156 292° West 445 512 45,000  Level Miami Center
12:49PM 27.7308 -79.0456 293° West 445 512 45,000  Level Miami Center
12:50PM 27.7728 -79.1614 292° West 445 512 45,000  Level Miami Center
12:51PM 27.8186 -79.2867 292° West 445 512 45,000 -600 Level Miami Center
12:52PM 27.8728 -79.4289 293° West 440 506 43,900 -1,320 Descending Miami Center
12:53PM 27.9161 -79.5614 290° West 440 506 42,400 -1,500 Descending Miami Center
12:54PM 27.9639 -79.6919 293° West 440 506 40,900 -1,500 Descending Miami Center
12:55PM 28.0111 -79.8225 292° West 445 512 39,400 -1,500 Descending Miami Center
12:56PM 28.0689 -79.9533 297° West 458 527 37,900 -1,500 Descending Miami Center
12:57PM 28.1372 -80.0778 302° West 470 541 36,500 -1,500 Descending Miami Center
12:58PM 28.2097 -80.2000 304° West 470 541 35,000 -1,500 Descending Miami Center
12:59PM 28.2525 -80.3261 291° West 470 541 33,500 -1,500 Descending Miami Center
01:00PM 28.3203 -80.4578 300° West 475 547 32,100 -1,620 Descending Miami Center
01:01PM 28.3458 -80.5978 282° West 470 541 30,300 -2,100 Descending Miami Center
01:02PM 28.2658 -80.7083 231° Southwest 421 484 28,000 -2,400 Descending Miami Center
01:03PM 28.2747 -80.8406 274° West 411 473 25,500 -1,980 Descending Miami Center
01:04PM 28.4192 -80.9667 322° Northwest 379 436 23,000 -1,020 Descending Jacksonville Center
01:05PM 28.5353 -81.0447 329° Northwest 402 463 23,000  Level Jacksonville Center
01:06PM 28.5953 -81.1547 302° West 417 480 23,000 -540 Level Jacksonville Center
01:07PM 28.5928 -81.2825 269° West 383 441 22,000 -1,200 Descending Jacksonville Center
01:08PM 28.6711 -81.3783 313° West 390 449 20,600 -1,380 Descending Jacksonville Center
01:09PM 28.7858 -81.3811 359° North 352 405 19,300 -1,380 Descending Jacksonville Center
01:10PM 28.8986 -81.3772 North 364 419 17,900 -1,200 Descending Jacksonville Center
01:11PM 29.0133 -81.3731 North 393 452 16,900 -540 Descending Jacksonville Center
01:12PM 29.1239 -81.3714 North 398 458 16,900 -300 Level Jacksonville Center
01:13PM 29.2239 -81.3625 North 398 458 16,400 -780 Descending Jacksonville Center
01:14PM 29.2992 -81.3614 North 398 458 15,700 -1,200 Descending Jacksonville Center
01:15PM 29.4181 -81.3572 North 386 444 14,400 -1,560 Descending Jacksonville Center
01:16PM 29.5139 -81.3508 North 379 436 12,600 -1,980 Descending Jacksonville Center
01:16PM 29.5808 -81.3497 North 314 361 11,200 -2,160 Descending Jacksonville Center
01:17PM 29.6267 -81.3467 North 341 392 9,700 -2,640 Descending Jacksonville Center
01:18PM 29.7100 -81.3431 North 308 354 6,800 -2,700 Descending Jacksonville Center
01:19PM 29.7875 -81.3467 358° North 288 331 4,300 -2,040 Descending Jacksonville Center
01:20PM 29.8564 -81.3647 347° North 268 308 2,800 -1,200 Descending Jacksonville Center
01:21PM 29.9172 -81.3781 349° North 240 276 1,900 -720 Descending Jacksonville Center
01:22PM 29.9592 -81.4061 330° Northwest 201 231 1,400 -540 Descending Jacksonville Center
01:23PM 29.9989 -81.3936 15° North 176 203 900 -540 Descending Jacksonville Center
01:25PM 29.9592 -81.3397 128° Southeast  Level Estimated
01:32PM 29.9592 -81.3397 128° Southeast  Level Estimated